Time;durP1;ratioP1;P1;durP2;ratioP2;P2;SDS_P1;SDS_P2;PMS_P1;PMS_P2;Temp;Humidity;BMP_temperature;BMP_pressure;BME280_temperature;BME280_humidity;BME280_pressure;Samples;Min_cycle;Max_cycle;Signal;HPM_P1;HPM_P2
2022/03/19 00:01:01;;;;;;;51.65;31.70;;;;;;;;;;5108237;28;20089;-69
2022/03/19 00:03:28;;;;;;;50.70;29.15;;;;;;;;;;5101978;28;20024;-69
2022/03/19 00:05:54;;;;;;;45.45;28.15;;;;;;;;;;5110415;28;20077;-69
2022/03/19 00:08:20;;;;;;;45.65;28.10;;;;;;;;;;5114483;28;20038;-74
2022/03/19 00:10:46;;;;;;;41.97;27.92;;;;;;;;;;5114437;28;20488;-68
2022/03/19 00:13:12;;;;;;;45.53;27.25;;;;;;;;;;5114788;28;20024;-67
2022/03/19 00:15:40;;;;;;;51.65;32.38;;;;;;;;;;5099683;28;20044;-65
2022/03/19 00:18:06;;;;;;;36.10;24.80;;;;;;;;;;5094090;28;20022;-68
2022/03/19 00:20:32;;;;;;;41.67;26.13;;;;;;;;;;5092270;28;20025;-67
2022/03/19 00:22:59;;;;;;;38.53;24.27;;;;;;;;;;5094116;28;20020;-68
2022/03/19 00:25:25;;;;;;;39.50;27.35;;;;;;;;;;5093913;28;20024;-67
2022/03/19 00:27:51;;;;;;;38.97;24.48;;;;;;;;;;5094047;28;20031;-67
2022/03/19 00:30:17;;;;;;;41.50;25.13;;;;;;;;;;5093585;28;20036;-69
2022/03/19 00:32:43;;;;;;;41.85;26.83;;;;;;;;;;5093595;28;20543;-72
2022/03/19 00:35:10;;;;;;;42.55;26.73;;;;;;;;;;5093647;28;20153;-66
2022/03/19 00:37:43;;;;;;;40.95;25.42;;;;;;;;;;5093227;28;20040;-67
2022/03/19 00:40:10;;;;;;;39.95;26.05;;;;;;;;;;5092974;28;20395;-67
2022/03/19 00:42:36;;;;;;;44.03;27.23;;;;;;;;;;5093447;28;20035;-77
2022/03/19 00:45:03;;;;;;;47.03;30.55;;;;;;;;;;5094340;28;20036;-67
2022/03/19 00:47:29;;;;;;;45.67;30.08;;;;;;;;;;5093703;28;20024;-70
2022/03/19 00:49:55;;;;;;;44.88;31.63;;;;;;;;;;5096234;28;20036;-70
2022/03/19 00:52:20;;;;;;;43.33;27.60;;;103.10;1920.00;;;;;;5113460;27;20019;-70
2022/03/19 00:54:46;;;;;;;46.65;29.02;;;103.00;1945.60;;;;;;5113480;28;20053;-68
2022/03/19 00:57:12;;;;;;;43.75;28.70;;;103.00;1920.00;;;;;;5109527;28;20024;-67
2022/03/19 00:59:37;;;;;;;43.42;27.80;;;103.00;1945.60;;;;;;5093078;28;20081;-74
2022/03/19 01:02:03;;;;;;;39.33;26.38;;;102.90;1971.20;;;;;;5093133;28;20378;-75
2022/03/19 01:04:29;;;;;;;41.22;25.60;;;103.00;1971.20;;;;;;5093254;28;20028;-75
2022/03/19 01:06:55;;;;;;;43.88;26.33;;;103.00;1945.60;;;;;;5093408;28;20024;-76
2022/03/19 01:09:21;;;;;;;38.28;25.05;;;103.00;1945.60;;;;;;5092634;28;20093;-74
2022/03/19 01:11:47;;;;;;;38.13;24.77;;;;;;;;;;5092924;28;20607;-74
2022/03/19 01:14:13;;;;;;;46.25;26.67;;;102.90;1945.60;;;;;;5081234;28;20031;-73
2022/03/19 01:16:38;;;;;;;42.15;26.08;;;102.90;1971.20;;;;;;5083909;28;20016;-74
2022/03/19 01:19:04;;;;;;;42.35;24.98;;;103.00;1945.60;;;;;;5088921;28;20060;-75
2022/03/19 01:21:30;;;;;;;33.28;21.20;;;103.10;1945.60;;;;;;5071177;28;20032;-74
2022/03/19 01:23:56;;;;;;;44.13;25.30;;;103.30;1920.00;;;;;;5080333;28;20090;-75
2022/03/19 01:26:22;;;;;;;41.13;23.88;;;103.10;1945.60;;;;;;5092424;28;20047;-75
2022/03/19 01:28:48;;;;;;;37.25;21.98;;;103.00;1971.20;;;;;;5108266;28;20032;-74
2022/03/19 01:31:13;;;;;;;50.65;27.33;;;103.00;1945.60;;;;;;5093151;28;20016;-75
2022/03/19 01:33:54;;;;;;;35.05;22.75;;;103.00;1971.20;;;;;;5091682;28;20047;-74
2022/03/19 01:36:20;;;;;;;37.10;23.58;;;102.80;1971.20;;;;;;5086080;28;20100;-74
2022/03/19 01:38:49;;;;;;;45.10;25.45;;;102.90;1971.20;;;;;;5088120;28;20126;-75
2022/03/19 01:41:15;;;;;;;34.60;23.10;;;102.80;2201.60;;;;;;5072617;28;20020;-74
2022/03/19 01:43:40;;;;;;;32.53;23.08;;;102.70;1996.80;;;;;;5072402;28;20021;-74
2022/03/19 01:46:09;;;;;;;39.33;23.90;;;102.60;2227.20;;;;;;5072254;28;20104;-75
2022/03/19 01:48:35;;;;;;;37.42;22.67;;;102.80;1996.80;;;;;;5072220;28;20039;-74
2022/03/19 01:51:03;;;;;;;41.63;24.20;;;102.80;1996.80;;;;;;5071842;28;20029;-75
2022/03/19 01:53:29;;;;;;;36.28;21.65;;;102.80;1996.80;;;;;;5078174;28;20442;-75
2022/03/19 01:55:55;;;;;;;44.72;27.17;;;102.70;1996.80;;;;;;5070781;28;20132;-75
2022/03/19 01:58:21;;;;;;;37.00;23.38;;;;;;;;;;5072081;28;20032;-74
2022/03/19 02:00:47;;;;;;;43.25;24.00;;;102.80;1996.80;;;;;;5086987;28;20131;-78
2022/03/19 02:03:13;;;;;;;36.75;21.85;;;102.80;1996.80;;;;;;5091274;28;20021;-76
2022/03/19 02:05:39;;;;;;;36.45;22.73;;;102.80;1996.80;;;;;;5087646;28;20050;-76
2022/03/19 02:08:05;;;;;;;35.03;22.60;;;102.80;1996.80;;;;;;5071948;28;20033;-77
2022/03/19 02:10:34;;;;;;;37.42;22.90;;;102.70;1996.80;;;;;;5071791;28;20112;-76
2022/03/19 02:13:00;;;;;;;35.67;22.83;;;102.70;1996.80;;;;;;5072052;28;20024;-77
2022/03/19 02:15:25;;;;;;;34.50;21.08;;;102.60;2022.40;;;;;;5071949;28;20111;-75
2022/03/19 02:17:52;;;;;;;32.15;20.83;;;102.60;2022.40;;;;;;5071815;28;20071;-76
2022/03/19 02:20:18;;;;;;;29.35;18.05;;;102.50;2022.40;;;;;;5071878;28;20055;-76
2022/03/19 02:25:34;;;;;;;30.27;18.83;;;;;;;;;;5071792;28;20042;-74
2022/03/19 02:25:36;;;;;;;29.55;17.63;;;77.70;2048.00;;;;;;5086846;28;20048;-75
2022/03/19 02:28:02;;;;;;;27.75;17.25;;;77.60;2073.60;;;;;;5092092;28;20028;-76
2022/03/19 02:30:28;;;;;;;31.65;19.70;;;77.70;2048.00;;;;;;5092105;28;20043;-74
2022/03/19 02:32:54;;;;;;;30.17;19.63;;;77.70;2048.00;;;;;;5092494;28;20020;-74
2022/03/19 02:35:27;;;;;;;28.77;17.77;;;77.70;2073.60;;;;;;5092230;28;20070;-75
2022/03/19 02:37:53;;;;;;;32.92;19.83;;;102.40;2048.00;;;;;;5091992;28;20413;-74
2022/03/19 02:40:21;;;;;;;36.63;21.27;;;102.50;2048.00;;;;;;5092430;28;20032;-71
2022/03/19 02:42:51;;;;;;;36.95;21.17;;;;;;;;;;5091977;28;20024;-71
2022/03/19 02:45:18;;;;;;;28.13;18.55;;;;;;;;;;5092228;28;20543;-69
2022/03/19 02:47:59;;;;;;;28.45;17.77;;;;;;;;;;5092197;28;20055;-70
2022/03/19 02:50:29;;;;;;;28.50;17.10;;;;;;;;;;5091946;28;20070;-71
2022/03/19 02:52:56;;;;;;;27.35;18.30;;;;;;;;;;5092227;28;20056;-72
2022/03/19 02:55:22;;;;;;;26.23;17.90;;;;;;;;;;5092035;28;20024;-71
2022/03/19 02:57:48;;;;;;;27.92;19.30;;;;;;;;;;5091853;28;20020;-71
2022/03/19 03:00:15;;;;;;;31.08;18.30;;;;;;;;;;5090077;28;20025;-70
2022/03/19 03:02:41;;;;;;;28.98;18.98;;;;;;;;;;5091650;28;20035;-70
2022/03/19 03:05:07;;;;;;;33.88;19.73;;;;;;;;;;5093811;28;20059;-70
2022/03/19 03:07:33;;;;;;;32.75;21.30;;;;;;;;;;5095134;28;20034;-69
2022/03/19 03:10:00;;;;;;;28.80;19.02;;;;;;;;;;5095232;28;20040;-70
2022/03/19 03:12:26;;;;;;;30.02;19.73;;;;;;;;;;5095264;28;20016;-70
2022/03/19 03:14:52;;;;;;;27.63;17.90;;;;;;;;;;5095228;28;20474;-70
2022/03/19 03:17:18;;;;;;;29.75;19.35;;;;;;;;;;5095072;28;20446;-69
2022/03/19 03:19:44;;;;;;;26.67;17.83;;;;;;;;;;5094920;28;20070;-70
2022/03/19 03:22:11;;;;;;;26.33;18.55;;;;;;;;;;5095237;28;20115;-69
2022/03/19 03:24:37;;;;;;;30.52;19.38;;;;;;;;;;5094876;28;20026;-69
2022/03/19 03:27:03;;;;;;;28.73;19.42;;;;;;;;;;5093644;28;20521;-70
2022/03/19 03:29:29;;;;;;;30.33;19.48;;;;;;;;;;5094564;28;20500;-70
2022/03/19 03:31:55;;;;;;;26.20;17.73;;;;;;;;;;5093479;28;20024;-70
2022/03/19 03:34:24;;;;;;;31.58;19.52;;;;;;;;;;5094595;28;20024;-71
2022/03/19 03:36:50;;;;;;;29.77;19.50;;;;;;;;;;5094382;28;20040;-70
2022/03/19 03:39:16;;;;;;;35.75;22.73;;;;;;;;;;5094740;28;20080;-70
2022/03/19 03:41:42;;;;;;;38.47;22.52;;;;;;;;;;5094574;28;20031;-74
2022/03/19 03:44:08;;;;;;;31.17;20.08;;;;;;;;;;5094630;28;20026;-73
2022/03/19 03:46:34;;;;;;;27.90;18.58;;;;;;;;;;5094695;28;20374;-72
2022/03/19 03:49:00;;;;;;;31.08;19.77;;;;;;;;;;5095066;28;20024;-72
2022/03/19 03:51:27;;;;;;;26.33;17.13;;;;;;;;;;5094806;28;20024;-72
2022/03/19 03:53:53;;;;;;;26.05;17.35;;;;;;;;;;5094836;28;20417;-71
2022/03/19 03:56:19;;;;;;;65.13;33.55;;;;;;;;;;5094336;28;20103;-71
2022/03/19 03:58:45;;;;;;;32.15;19.45;;;;;;;;;;5094302;28;20492;-70
2022/03/19 04:01:11;;;;;;;27.95;17.98;;;;;;;;;;5093944;28;20020;-72
2022/03/19 04:03:37;;;;;;;27.73;17.42;;;;;;;;;;5094092;28;20535;-71
2022/03/19 04:06:04;;;;;;;28.27;17.92;;;;;;;;;;5094035;28;20035;-70
2022/03/19 04:08:30;;;;;;;26.88;17.35;;;;;;;;;;5093908;28;20119;-71
2022/03/19 04:10:56;;;;;;;27.52;17.67;;;;;;;;;;5094104;28;20027;-72
2022/03/19 04:13:22;;;;;;;22.60;16.17;;;;;;;;;;5094170;28;20020;-71
2022/03/19 04:15:50;;;;;;;22.38;14.35;;;;;;;;;;5093816;28;20028;-73
2022/03/19 04:18:16;;;;;;;24.00;16.63;;;;;;;;;;5094031;28;20051;-71
2022/03/19 04:20:42;;;;;;;23.42;17.02;;;;;;;;;;5093582;28;20028;-72
2022/03/19 04:23:08;;;;;;;32.70;18.27;;;;;;;;;;5093782;28;20020;-72
2022/03/19 04:25:34;;;;;;;29.75;18.15;;;;;;;;;;5093772;28;20478;-71
2022/03/19 04:28:01;;;;;;;26.50;16.65;;;;;;;;;;5093551;28;20036;-71
2022/03/19 04:30:28;;;;;;;30.50;18.77;;;;;;;;;;5093461;28;20028;-71
2022/03/19 04:32:58;;;;;;;35.78;21.65;;;;;;;;;;5093515;28;20026;-70
2022/03/19 04:38:11;;;;;;;25.10;17.55;;;;;;;;;;5093245;28;20055;-72
2022/03/19 04:40:37;;;;;;;31.35;19.45;;;;;;;;;;5093426;28;20101;-73
2022/03/19 04:43:04;;;;;;;29.92;20.83;;;;;;;;;;5093461;28;20016;-72
2022/03/19 04:45:30;;;;;;;24.52;17.10;;;;;;;;;;5093846;28;20030;-73
2022/03/19 04:47:56;;;;;;;31.23;17.35;;;;;;;;;;5093663;28;20470;-73
2022/03/19 04:50:23;;;;;;;28.90;16.45;;;;;;;;;;5093590;28;20035;-77
2022/03/19 04:52:49;;;;;;;22.52;15.07;;;;;;;;;;5093882;28;20452;-73
2022/03/19 04:55:15;;;;;;;24.70;16.58;;;;;;;;;;5093610;28;20032;-71
2022/03/19 04:57:42;;;;;;;28.70;17.70;;;;;;;;;;5093946;28;20138;-69
2022/03/19 05:00:09;;;;;;;29.40;18.58;;;;;;;;;;5093237;28;20027;-70
2022/03/19 05:02:35;;;;;;;31.23;17.83;;;;;;;;;;5093389;28;20028;-73
2022/03/19 05:05:01;;;;;;;27.48;17.42;;;;;;;;;;5093436;28;20475;-70
2022/03/19 05:07:28;;;;;;;27.25;17.38;;;;;;;;;;5093252;28;20471;-70
2022/03/19 05:12:43;;;;;;;32.10;18.48;;;;;;;;;;5093492;28;20173;-70
2022/03/19 05:15:14;;;;;;;28.45;18.17;;;;;;;;;;5093116;28;20028;-71
2022/03/19 05:17:40;;;;;;;41.30;23.85;;;;;;;;;;5092988;28;20020;-71
2022/03/19 05:20:06;;;;;;;32.08;20.05;;;;;;;;;;5093065;28;20024;-71
2022/03/19 05:22:33;;;;;;;30.73;19.80;;;;;;;;;;5092480;28;20539;-71
2022/03/19 05:24:59;;;;;;;30.80;19.33;;;;;;;;;;5092964;28;20028;-72
2022/03/19 05:27:26;;;;;;;31.45;19.88;;;;;;;;;;5091910;28;20478;-71
2022/03/19 05:29:52;;;;;;;36.47;23.90;;;;;;;;;;5092202;28;20037;-70
2022/03/19 05:32:18;;;;;;;47.22;29.27;;;;;;;;;;5092587;28;20095;-73
2022/03/19 05:34:44;;;;;;;48.58;28.90;;;;;;;;;;5092519;28;20035;-73
2022/03/19 05:37:11;;;;;;;44.85;28.58;;;;;;;;;;5092001;28;20040;-73
2022/03/19 05:39:37;;;;;;;52.58;27.25;;;;;;;;;;5092529;28;20028;-73
2022/03/19 05:42:04;;;;;;;42.33;26.17;;;;;;;;;;5091370;28;20016;-73
2022/03/19 05:44:30;;;;;;;75.32;41.47;;;;;;;;;;5092325;28;20051;-73
2022/03/19 05:46:59;;;;;;;47.50;27.63;;;;;;;;;;5091124;28;20020;-72
2022/03/19 05:49:25;;;;;;;37.83;23.80;;;;;;;;;;5092613;28;20114;-73
2022/03/19 05:51:52;;;;;;;45.47;25.25;;;;;;;;;;5090953;28;20426;-74
2022/03/19 05:54:18;;;;;;;41.85;28.48;;;;;;;;;;5092297;28;20099;-73
2022/03/19 05:56:44;;;;;;;45.05;30.55;;;;;;;;;;5092241;28;20028;-73
2022/03/19 05:59:10;;;;;;;40.17;27.10;;;;;;;;;;5092297;28;20020;-72
2022/03/19 06:01:36;;;;;;;48.08;26.52;;;;;;;;;;5092334;28;20059;-71
2022/03/19 06:04:03;;;;;;;42.90;29.30;;;102.50;2073.60;;;;;;5092148;28;20024;-72
2022/03/19 06:06:30;;;;;;;46.05;29.63;;;;;;;;;;5091787;28;20020;-71
2022/03/19 06:08:56;;;;;;;49.60;29.70;;;;;;;;;;5092052;28;20127;-71
2022/03/19 06:11:22;;;;;;;53.05;34.88;;;;;;;;;;5092243;28;20016;-70
2022/03/19 06:13:48;;;;;;;50.60;31.30;;;;;;;;;;5092457;28;20031;-70
2022/03/19 06:16:15;;;;;;;61.25;37.58;;;;;;;;;;5092090;28;20020;-70
2022/03/19 06:18:46;;;;;;;55.28;32.38;;;;;;;;;;5092215;28;20020;-71
2022/03/19 06:21:13;;;;;;;68.82;38.67;;;;;;;;;;5092162;28;20117;-71
2022/03/19 06:23:39;;;;;;;73.72;44.42;;;;;;;;;;5091911;28;20024;-70
2022/03/19 06:26:05;;;;;;;67.00;43.15;;;;;;;;;;5092085;28;20107;-71
2022/03/19 06:28:31;;;;;;;68.72;42.03;;;;;;;;;;5091795;28;20024;-71
2022/03/19 06:30:57;;;;;;;64.03;40.53;;;;;;;;;;5091751;28;20497;-71
2022/03/19 06:33:23;;;;;;;71.07;43.17;;;;;;;;;;5092144;28;20378;-70
2022/03/19 06:38:34;;;;;;;79.32;49.28;;;;;;;;;;5093495;28;20409;-74
2022/03/19 06:41:00;;;;;;;69.70;42.80;;;;;;;;;;5095705;28;20024;-74
2022/03/19 06:43:39;;;;;;;72.47;46.78;;;;;;;;;;5094659;28;20028;-74
2022/03/19 06:46:05;;;;;;;63.67;39.25;;;;;;;;;;5094522;28;20062;-73
2022/03/19 06:48:31;;;;;;;84.97;58.15;;;;;;;;;;5094421;28;20024;-75
2022/03/19 06:50:57;;;;;;;72.00;49.30;;;;;;;;;;5095778;28;20055;-75
2022/03/19 06:53:24;;;;;;;55.33;35.65;;;;;;;;;;5094466;28;20016;-72
2022/03/19 06:55:51;;;;;;;62.85;37.80;;;;;;;;;;5095807;28;20032;-76
2022/03/19 06:58:17;;;;;;;51.20;35.00;;;;;;;;;;5095614;28;20024;-78
2022/03/19 07:00:43;;;;;;;50.58;32.38;;;;;;;;;;5094569;28;20032;-79
2022/03/19 07:03:09;;;;;;;61.10;36.90;;;;;;;;;;5095912;28;20035;-83
2022/03/19 07:05:36;;;;;;;71.32;43.42;;;;;;;;;;5095564;28;20490;-72
2022/03/19 07:08:03;;;;;;;89.43;53.35;;;;;;;;;;5095360;28;20036;-72
2022/03/19 07:10:29;;;;;;;69.47;44.08;;;;;;;;;;5095255;28;20161;-75
2022/03/19 07:12:56;;;;;;;76.28;51.17;;;;;;;;;;5095264;28;20081;-74
2022/03/19 07:15:30;;;;;;;57.90;39.53;;;;;;;;;;5095063;28;20028;-74
2022/03/19 07:17:57;;;;;;;70.75;46.17;;;;;;;;;;5095137;28;20033;-73
2022/03/19 07:20:23;;;;;;;69.60;46.03;;;;;;;;;;5094944;28;20504;-75
2022/03/19 07:22:51;;;;;;;78.57;49.80;;;;;;;;;;5094700;28;20153;-73
2022/03/19 07:25:18;;;;;;;71.03;43.88;;;;;;;;;;5093650;28;20449;-73
2022/03/19 07:27:44;;;;;;;57.38;39.63;;;;;;;;;;5095012;28;20020;-74
2022/03/19 07:30:11;;;;;;;90.82;62.55;;;;;;;;;;5094503;28;20150;-73
2022/03/19 07:32:37;;;;;;;79.07;50.38;;;;;;;;;;5094559;28;20016;-75
2022/03/19 07:35:03;;;;;;;101.60;70.25;;;;;;;;;;5092979;28;20032;-73
2022/03/19 07:37:29;;;;;;;104.18;62.65;;;;;;;;;;5094075;28;20044;-75
2022/03/19 07:39:56;;;;;;;73.47;49.92;;;;;;;;;;5094690;28;20494;-74
2022/03/19 07:42:22;;;;;;;76.20;48.30;;;231.10;1510.40;;;;;;5094606;28;20385;-74
2022/03/19 07:44:48;;;;;;;71.85;46.88;;;;;;;;;;5093515;28;20028;-73
2022/03/19 07:47:15;;;;;;;75.60;51.67;;;;;;;;;;5094414;28;20051;-72
2022/03/19 07:49:41;;;;;;;74.88;49.90;;;;;;;;;;5093675;28;20073;-73
2022/03/19 07:52:08;;;;;;;95.90;57.22;;;256.70;1433.60;;;;;;5094187;28;20072;-73
2022/03/19 07:54:36;;;;;;;96.75;56.47;;;;;;;;;;5092693;28;20091;-73
2022/03/19 07:57:03;;;;;;;84.72;50.92;;;;;;;;;;5092814;28;20076;-74
2022/03/19 07:59:29;;;;;;;83.38;50.83;;;282.20;1408.00;;;;;;5093912;28;20031;-73
2022/03/19 08:01:54;;;;;;;69.38;40.35;;;282.10;1382.40;;;;;;5093982;28;20535;-73
2022/03/19 08:04:22;;;;;;;50.95;36.47;;;282.20;1356.80;;;;;;5094063;28;20069;-73
2022/03/19 08:06:49;;;;;;;68.68;41.15;;;;;;;;;;5094513;28;20110;-72
2022/03/19 08:09:15;;;;;;;64.60;41.00;;;;;;;;;;5093030;28;20548;-74
2022/03/19 08:11:42;;;;;;;73.10;43.30;;;;;;;;;;5094136;28;20099;-74
2022/03/19 08:14:09;;;;;;;62.20;41.47;;;;;;;;;;5093986;28;20576;-74
2022/03/19 08:16:35;;;;;;;106.07;67.78;;;;;;;;;;5093861;28;20020;-73
2022/03/19 08:19:01;;;;;;;71.70;43.20;;;;;;;;;;5093793;28;20520;-74
2022/03/19 08:21:27;;;;;;;72.28;40.75;;;;;;;;;;5093827;28;20021;-74
2022/03/19 08:23:53;;;;;;;71.45;43.58;;;;;;;;;;5093629;28;20051;-74
2022/03/19 08:26:19;;;;;;;71.95;42.42;;;;;;;;;;5093616;28;20020;-72
2022/03/19 08:28:45;;;;;;;69.75;42.58;;;;;;;;;;5091591;28;20398;-75
2022/03/19 08:31:11;;;;;;;60.35;38.30;;;;;;;;;;5093361;28;20024;-73
2022/03/19 08:33:37;;;;;;;41.90;26.13;;;;;;;;;;5093760;28;20048;-74
2022/03/19 08:36:03;;;;;;;44.83;25.95;;;;;;;;;;5093247;28;20024;-75
2022/03/19 08:41:14;;;;;;;38.55;27.10;;;;;;;;;;5093403;28;20046;-74
2022/03/19 08:43:40;;;;;;;39.40;26.13;;;;;;;;;;5092475;28;20016;-74
2022/03/19 08:46:06;;;;;;;23.85;19.00;;;;;;;;;;5093227;28;20027;-76
2022/03/19 08:48:33;;;;;;;38.92;25.27;;;;;;;;;;5093188;28;20493;-73
2022/03/19 08:51:39;;;;;;;33.33;22.98;;;;;;;;;;5093208;28;20050;-74
2022/03/19 08:53:45;;;;;;;37.25;18.15;;;;;;;;;;5092858;28;20024;-74
2022/03/19 08:56:11;;;;;;;23.00;16.05;;;;;;;;;;5093189;28;20024;-74
2022/03/19 08:58:38;;;;;;;16.15;12.38;;;;;;;;;;5092767;28;20470;-74
2022/03/19 09:01:04;;;;;;;34.83;19.70;;;;;;;;;;5092823;28;20024;-72
2022/03/19 09:03:30;;;;;;;35.33;19.02;;;;;;;;;;5093210;28;20027;-73
2022/03/19 09:05:56;;;;;;;20.70;15.13;;;;;;;;;;5093339;28;20142;-73
2022/03/19 09:08:23;;;;;;;28.85;17.40;;;;;;;;;;5092416;28;20028;-70
2022/03/19 09:10:57;;;;;;;43.25;26.00;;;;;;;;;;5092772;28;20084;-73
2022/03/19 09:13:23;;;;;;;27.60;14.57;;;;;;;;;;5090254;28;20047;-72
2022/03/19 09:15:52;;;;;;;15.20;11.18;;;;;;;;;;5092073;28;20027;-72
2022/03/19 09:18:20;;;;;;;19.27;11.73;;;;;;;;;;5092133;28;20090;-73
2022/03/19 09:20:46;;;;;;;20.80;12.32;;;;;;;;;;5092359;28;20454;-72
2022/03/19 09:23:12;;;;;;;27.95;14.02;;;;;;;;;;5091950;28;20016;-73
2022/03/19 09:25:38;;;;;;;18.67;13.13;;;384.30;998.40;;;;;;5090848;28;20102;-72
2022/03/19 09:28:04;;;;;;;25.77;17.88;;;384.50;998.40;;;;;;5071950;28;20100;-76
2022/03/19 09:30:45;;;;;;;23.75;13.52;;;;;;;;;;5085717;28;20044;-75
2022/03/19 09:33:11;;;;;;;34.53;25.65;;;;;;;;;;5092488;28;20080;-73
2022/03/19 09:35:57;;;;;;;42.50;25.90;;;;;;;;;;5082072;28;20024;-75
2022/03/19 09:41:10;;;;;;;17.10;12.77;;;;;;;;;;5078912;28;20069;-75
2022/03/19 09:43:37;;;;;;;25.17;15.75;;;;;;;;;;5091752;28;20044;-71
2022/03/19 09:46:04;;;;;;;15.05;12.30;;;;;;;;;;5092113;28;20035;-71
2022/03/19 09:48:30;;;;;;;16.20;13.48;;;;;;;;;;5092553;28;20445;-71
2022/03/19 09:50:57;;;;;;;17.25;13.23;;;665.90;691.20;;;;;;5092268;28;20028;-73
2022/03/19 09:53:25;;;;;;;18.42;14.40;;;;;;;;;;5092159;28;20525;-72
2022/03/19 09:55:57;;;;;;;21.15;15.55;;;716.80;665.60;;;;;;5092785;28;20038;-72
2022/03/19 09:58:24;;;;;;;18.85;13.85;;;;;;;;;;5108227;28;20067;-71
2022/03/19 10:00:50;;;;;;;27.60;21.60;;;;;;;;;;5091857;28;20055;-72
2022/03/19 10:03:22;;;;;;;20.27;13.95;;;;;;;;;;5092124;28;20027;-72
2022/03/19 10:08:36;;;;;;;21.92;14.00;;;;;;;;;;5092656;28;20496;-73
2022/03/19 10:11:09;;;;;;;14.75;12.55;;;;;;;;;;5092358;28;20388;-73
2022/03/19 10:13:40;;;;;;;18.33;16.42;;;;;;;;;;5092861;28;20420;-72
2022/03/19 10:16:07;;;;;;;42.80;33.67;;;;;;;;;;5075433;28;20070;-73
2022/03/19 10:18:33;;;;;;;17.67;15.98;;;;;;;;;;5075543;28;20023;-74
2022/03/19 10:21:01;;;;;;;17.23;14.00;;;;;;;;;;5076445;28;20036;-74
2022/03/19 10:26:38;;;;;;;21.13;14.10;;;;;;;;;;5062352;22;20119;-73
2022/03/19 10:29:05;;;;;;;24.38;14.93;;;;;;;;;;5054604;28;20028;-71
2022/03/19 10:31:46;;;;;;;17.38;15.48;;;;;;;;;;5055074;28;20021;-74
2022/03/19 10:34:12;;;;;;;;;;;;;;;;;;5037789;28;20033;-75
2022/03/19 10:36:42;;;;;;;11.63;9.90;;;;;;;;;;5055246;28;19905;-74
2022/03/19 10:39:22;;;;;;;14.10;12.68;;;;;;;;;;5054287;28;20056;-73
2022/03/19 10:41:49;;;;;;;29.13;20.85;;;;;;;;;;5054242;28;20022;-72
2022/03/19 10:44:16;;;;;;;17.80;15.80;;;;;;;;;;5055721;28;20359;-74
2022/03/19 10:46:53;;;;;;;16.33;14.73;;;;;;;;;;5055692;28;20471;-73
2022/03/19 10:49:21;;;;;;;33.53;14.98;;;;;;;;;;5053849;28;20464;-74
2022/03/19 10:51:48;;;;;;;64.70;36.20;;;;;;;;;;5054091;28;20057;-73
2022/03/19 10:54:15;;;;;;;13.38;11.95;;;;;;;;;;5055210;28;20025;-73
2022/03/19 10:56:42;;;;;;;16.48;13.52;;;;;;;;;;5053577;28;20124;-73
2022/03/19 10:59:08;;;;;;;18.60;16.30;;;;;;;;;;5054864;28;20051;-73
2022/03/19 11:01:36;;;;;;;23.80;15.88;;;;;;;;;;5055366;28;20029;-73
2022/03/19 11:04:03;;;;;;;16.88;12.88;;;;;;;;;;5055499;28;20091;-72
2022/03/19 11:06:30;;;;;;;21.70;13.40;;;;;;;;;;5055177;28;20017;-73
2022/03/19 11:08:56;;;;;;;20.85;15.18;;;;;;;;;;5055014;28;20033;-72
2022/03/19 11:11:37;;;;;;;22.75;16.50;;;;;;;;;;5054949;28;20032;-73
2022/03/19 11:14:03;;;;;;;28.40;18.77;;;;;;;;;;5054829;28;20403;-72
2022/03/19 11:16:34;;;;;;;34.45;17.92;;;;;;;;;;5054541;28;20025;-74
2022/03/19 11:19:02;;;;;;;16.42;13.38;;;;;;;;;;5054944;28;20526;-72
2022/03/19 11:21:31;;;;;;;24.10;15.25;;;819.20;537.60;;;;;;5054794;28;20079;-72
2022/03/19 11:24:02;;;;;;;27.27;15.32;;;;;;;;;;5053982;28;20020;-74
2022/03/19 11:26:29;;;;;;;19.65;15.05;;;793.60;563.20;;;;;;5071063;28;20437;-73
2022/03/19 11:28:56;;;;;;;23.75;17.63;;;768.90;537.60;;;;;;5074526;28;20036;-73
2022/03/19 11:31:30;;;;;;;19.27;14.23;;;768.90;537.60;;;;;;5073380;28;20020;-74
2022/03/19 11:33:59;;;;;;;26.35;14.95;;;;;;;;;;5074311;28;20116;-73
2022/03/19 11:36:25;;;;;;;17.17;12.65;;;742.40;588.80;;;;;;5056186;28;20020;-73
2022/03/19 11:38:52;;;;;;;27.98;19.02;;;;;;;;;;5074337;28;20024;-74
2022/03/19 11:41:26;;;;;;;19.02;12.35;;;;;;;;;;5055969;28;20525;-73
2022/03/19 11:44:12;;;;;;;21.15;11.32;;;;;;;;;;5074405;28;20108;-73
2022/03/19 11:46:56;;;;;;;17.35;13.43;;;;;;;;;;5074329;28;20112;-73
2022/03/19 11:49:41;;;;;;;21.88;14.02;;;;;;;;;;5074344;28;20024;-72
2022/03/19 11:52:07;;;;;;;29.60;22.40;;;;;;;;;;5074281;28;20020;-73
2022/03/19 11:54:54;;;;;;;15.55;11.00;;;;;;;;;;5074277;28;20032;-73
2022/03/19 11:57:20;;;;;;;83.85;16.17;;;;;;;;;;5056035;28;20380;-73
2022/03/19 11:59:48;;;;;;;21.50;10.00;;;589.30;640.00;;;;;;5039026;28;20029;-73
2022/03/19 12:02:14;;;;;;;24.55;11.75;;;589.30;640.00;;;;;;5074093;28;20060;-72
2022/03/19 12:04:55;;;;;;;22.05;10.55;;;589.20;665.60;;;;;;5073952;28;20080;-73
2022/03/19 12:07:39;;;;;;;13.43;9.77;;;;;;;;;;5074113;28;20478;-73
2022/03/19 12:10:24;;;;;;;19.95;14.60;;;563.90;665.60;;;;;;5073679;28;20055;-73
2022/03/19 12:12:50;;;;;;;13.88;11.93;;;563.80;691.20;;;;;;5073679;28;20112;-73
2022/03/19 12:15:34;;;;;;;14.65;12.73;;;563.90;691.20;;;;;;5073530;28;20024;-72
2022/03/19 12:18:25;;;;;;;12.50;9.55;;;588.90;665.60;;;;;;5073583;28;20099;-72
2022/03/19 12:20:52;;;;;;;17.75;12.90;;;588.80;665.60;;;;;;5073610;28;20099;-72
2022/03/19 12:23:19;;;;;;;17.05;12.50;;;564.10;691.20;;;;;;5073516;28;20033;-71
2022/03/19 12:26:01;;;;;;;13.65;11.02;;;563.90;691.20;;;;;;5072104;28;20514;-72
2022/03/19 12:28:28;;;;;;;11.95;9.30;;;563.60;716.80;;;;;;5053005;28;20037;-72
2022/03/19 12:30:54;;;;;;;17.38;12.82;;;563.50;716.80;;;;;;5067885;28;20028;-72
2022/03/19 12:33:29;;;;;;;19.58;13.05;;;;;;;;;;5073233;28;20021;-72
2022/03/19 12:35:58;;;;;;;23.60;16.45;;;;;;;;;;5054340;28;20037;-72
2022/03/19 12:38:32;;;;;;;21.00;12.43;;;538.50;768.00;;;;;;5072125;28;20025;-72
2022/03/19 12:43:43;;;;;;;16.92;12.60;;;538.40;716.80;;;;;;5073574;28;20034;-73
2022/03/19 12:46:09;;;;;;;18.48;12.93;;;538.40;691.20;;;;;;5054679;28;20119;-62
2022/03/19 12:48:39;;;;;;;22.48;12.20;;;538.40;716.80;;;;;;5067516;28;20479;-68
2022/03/19 12:51:05;;;;;;;18.17;13.75;;;538.30;716.80;;;;;;5067422;28;20028;-68
2022/03/19 12:53:36;;;;;;;37.53;16.60;;;538.40;716.80;;;;;;5069533;28;20379;-79
2022/03/19 12:56:11;;;;;;;15.47;11.93;;;;;;;;;;5061584;28;20079;-66
2022/03/19 12:58:38;;;;;;;24.13;17.00;;;537.90;742.40;;;;;;5053650;28;20471;-69
2022/03/19 13:01:07;;;;;;;16.63;13.60;;;538.00;742.40;;;;;;5064119;28;20031;-65
2022/03/19 13:03:33;;;;;;;26.13;15.15;;;538.00;716.80;;;;;;5049691;28;20454;-75
2022/03/19 13:05:59;;;;;;;26.77;16.52;;;538.00;742.40;;;;;;5070430;28;20028;-63
2022/03/19 13:08:24;;;;;;;28.35;17.10;;;537.70;742.40;;;;;;5072324;28;20463;-61
2022/03/19 13:10:52;;;;;;;21.50;14.45;;;537.70;742.40;;;;;;5070348;28;20036;-67
2022/03/19 13:13:18;;;;;;;20.45;13.60;;;512.90;742.40;;;;;;5072280;28;20017;-63
2022/03/19 13:15:52;;;;;;;20.52;13.63;;;512.30;768.00;;;;;;5069728;28;20538;-72
2022/03/19 13:18:28;;;;;;;28.65;21.30;;;;;;;;;;5072170;28;20025;-68
2022/03/19 13:21:02;;;;;;;41.70;21.02;;;;;;;;;;5066843;28;20564;-62
2022/03/19 13:23:29;;;;;;;22.95;18.13;;;;;;;;;;5069749;28;20032;-70
2022/03/19 13:25:55;;;;;;;51.50;32.33;;;;;;;;;;5069308;28;20644;-73
2022/03/19 13:28:21;;;;;;;25.08;19.38;;;;;;;;;;5072491;28;20182;-63
2022/03/19 13:30:49;;;;;;;31.90;18.35;;;;;;;;;;5072086;28;20375;-64
2022/03/19 13:33:16;;;;;;;31.88;19.70;;;;;;;;;;5068920;28;20024;-70
2022/03/19 13:35:47;;;;;;;25.27;13.82;;;;;;;;;;5072438;28;20025;-61
2022/03/19 13:38:15;;;;;;;27.38;19.90;;;487.00;742.40;;;;;;5072466;28;20029;-81
2022/03/19 13:40:42;;;;;;;36.88;27.15;;;;;;;;;;5072804;28;20115;-70
2022/03/19 13:43:08;;;;;;;31.23;21.70;;;;;;;;;;5070676;28;20394;-67
2022/03/19 13:45:35;;;;;;;20.27;16.60;;;;;;;;;;5071005;28;20029;-74
2022/03/19 13:48:02;;;;;;;23.02;17.48;;;;;;;;;;5071012;28;20024;-71
2022/03/19 13:50:28;;;;;;;29.73;18.27;;;;;;;;;;5072000;28;20028;-67
2022/03/19 13:52:56;;;;;;;21.83;15.23;;;;;;;;;;5071619;28;20379;-69
2022/03/19 13:55:22;;;;;;;21.90;16.17;;;;;;;;;;5071894;28;20029;-66
2022/03/19 13:57:53;;;;;;;23.40;14.77;;;;;;;;;;5072162;28;20032;-64
2022/03/19 14:00:23;;;;;;;22.60;16.45;;;;;;;;;;5071422;28;20031;-78
2022/03/19 14:02:54;;;;;;;22.38;16.63;;;;;;;;;;5071951;28;20024;-70
2022/03/19 14:05:33;;;;;;;33.75;24.92;;;;;;;;;;5072390;28;20108;-68